Main page
METAR-TAF:

METAR-TAF

Airports :

Roskilde Airport

Roskilde, Denmark

latitude: 55-35N, longitude: 012-08E, elevation: 44 m

Current weather observation

The report was made 35 minutes ago, at 12:50 UTC
Wind 9 kt from the Southeast
Temperature 18°C
Humidity 49%
Pressure 1016 hPa
Visibility 10 km or more

METAR: EKRK 211250Z AUTO 14009KT 9999 BKN076/// 18/07 Q1016

Time: 15:25 (13:25 UTC)

Forecast

The report was made 2 hours and 2 minutes ago, at 11:23 UTC
Forecast valid from 21 at 12 UTC to 21 at 21 UTC
Wind 5 kt from the Southeast
Visibility 10 km or more
no clouds below 1500 m and no cumulonimbus
Temporary
from 21 at 18 UTC to 21 at 21 UTC
Visibility: 4000 m
Broken clouds at a height of 4000 ft, Cumulonimbus.
rain showers,

TAF: EKRK 211123Z 2112/2121 13005KT CAVOK TEMPO 2118/2121 4000 SHRA BKN040CB

Weather observations and forecasts of more than 4000 airports (METAR and TAF reports).

The available stations are represented by yellow and red dots on the map.

Hover mouse over dot to see the name of the station.

Then click to see weather observations and forecasts.

To change the map : click on the green buttons with a black cross to zoom in, on the green button with a dash to zoom out, or on the green arrows for adjacent maps.


METAR-TAF: